Palma Sola, Florida
Current Conditions -  °F | °C
As of 11:53 AM on Thursday 30 Oct 2014 (Local Time) from KSRQ Reporting Station
Few Clouds Few Clouds  
Wind Chill: 81°   Ceiling: Unl
Heat Index: 83°   Visibility: 10mi
Dew Point: 65°   Wind: 7mph
Humidity: 58%   Direction: 240°WSW
Pressure: 29.97"   Gusts: NA
Location:  27.4993°N, 82.6363°W
Report Text: KSRQ 301553Z 24006KT 10SM FEW110 27/18 A2997 RMK AO2 SLP148 T02720183
Loading
Personal Weather Stations






























Interactive Weather Map
Tropical Storm Tracking
New forecast layout! Learn more

10-Day Weather Forecast

Advertisements
Track Severe Weather on mobile